Pagrindinis puslapis
METAR-TAF:

METAR-TAF

Oro uostai :

Kutaisis, Gruzija

platuma: 42-10-35N, ilguma: 042-28-57E, Aukštis: 68 m

Dabartinis oras

Ataskaita buvo paskelbta 9 minutes, ne 11:30 UTC
Vėjas 9 kt iš Rytų/Šiaurės Rytų
Temperatūra 17°C
Drėgmė 59%
Slėgis 1013 hPa
Matomumas 10 km arba daugiau
Su prošvaistėmis ne aukštis 8000 ft

METAR: UGKO 281130Z 06009KT 9999 BKN080 17/09 Q1013 NOSIG

Laikas: 15:39 (11:39 UTC)

Prognozė

Ataskaita buvo paskelbta 6 valandos ir 39 minutes, ne 05:00 UTC
Prognozė galioja nuo 28 metu 06 UTC su 29 metu 06 UTC
Vėjas 7 kt iš Rytų
Matomumas 10 km arba daugiau
Su prošvaistėmis ne aukštis 6500 ft
Tapsmas
nuo 29 metu 02 UTC su 29 metu 04 UTC
Matomumas 10 km arba daugiau
nėra debesų žemiau 1500 m ir nėra kamuolinių lietaus debesų

TAF: UGKO 280500Z 2806/2906 08007KT 9999 BKN065 TX17/2812Z TN10/2903Z BECMG 2902/2904 CAVOK

Orai ataskaitas ir orų prognozės (METAR, TAF).

turimą stotys yra geltonos ir raudonos taškus žemėlapyje.

Perkelti pele per norėdami pamatyti stoties vardą.

Tada spustelėkite, norėdami matyti oro stebėjimo ir prognozės.

Norėdami pakeisti žemėlapį: spustelėkite ant žalios mygtukų su juodo kryžiaus žemyn,; žalią mygtuką su brūkšneliu, jei norite nutolinti; arba žalių rodyklių gretimoms žemėlapius.


METAR-TAF: